Time;durP1;ratioP1;P1;durP2;ratioP2;P2;SDS_P1;SDS_P2;PMS_P1;PMS_P2;Temp;Humidity;BMP_temperature;BMP_pressure;BME280_temperature;BME280_humidity;BME280_pressure;Samples;Min_cycle;Max_cycle;Signal;HPM_P1;HPM_P2
2023/04/21 00:15:09;;;;;;;22.33;9.17;;;10.20;99.90;;;;;;4955234;28;20969;-73
2023/04/21 00:17:36;;;;;;;21.67;9.60;;;10.30;99.90;;;;;;5009639;28;20500;-74
2023/04/21 00:20:05;;;;;;;20.30;10.47;;;10.20;99.90;;;;;;5008427;28;20489;-75
2023/04/21 00:22:32;;;;;;;20.33;10.63;;;10.20;99.90;;;;;;5010720;28;20478;-75
2023/04/21 00:24:59;;;;;;;16.30;10.40;;;10.20;99.90;;;;;;5008544;28;20472;-75
2023/04/21 00:27:30;;;;;;;17.17;8.87;;;10.20;99.90;;;;;;5006490;28;20487;-74
2023/04/21 00:29:57;;;;;;;19.53;9.47;;;10.00;99.90;;;;;;4996505;28;20520;-73
2023/04/21 00:32:25;;;;;;;16.80;9.90;;;10.00;99.90;;;;;;5001465;28;20458;-74
2023/04/21 00:34:52;;;;;;;26.20;11.57;;;10.00;99.90;;;;;;5022725;28;20691;-74
2023/04/21 00:37:19;;;;;;;20.30;10.73;;;10.00;99.90;;;;;;5002722;28;20583;-75
2023/04/21 00:39:46;;;;;;;21.87;10.00;;;9.90;99.90;;;;;;5005836;28;20478;-74
2023/04/21 00:42:16;;;;;;;16.87;10.70;;;10.00;99.90;;;;;;4998473;28;20597;-75
2023/04/21 00:44:50;;;;;;;24.00;9.70;;;10.10;99.90;;;;;;5004858;28;21051;-75
2023/04/21 00:47:20;;;;;;;20.77;10.40;;;10.00;99.90;;;;;;5008411;28;20544;-76
2023/04/21 00:49:47;;;;;;;19.17;10.00;;;9.90;99.90;;;;;;5002952;28;20542;-75
2023/04/21 00:52:19;;;;;;;16.03;8.77;;;10.00;99.90;;;;;;5001994;28;21195;-75
2023/04/21 00:54:46;;;;;;;14.87;8.40;;;10.10;99.90;;;;;;5001667;28;20497;-76
2023/04/21 00:57:17;;;;;;;23.93;10.73;;;10.20;99.90;;;;;;5006663;28;20497;-75
2023/04/21 00:59:44;;;;;;;28.67;13.90;;;10.10;99.90;;;;;;5004292;28;20515;-74
2023/04/21 01:05:17;;;;;;;24.37;12.73;;;10.10;99.90;;;;;;4985561;28;21028;-74
2023/04/21 01:11:13;;;;;;;18.53;9.97;;;10.10;99.90;;;;;;4997858;28;20462;-75
2023/04/21 01:13:44;;;;;;;19.50;10.37;;;10.10;99.90;;;;;;5000897;28;20495;-75
2023/04/21 01:16:16;;;;;;;15.27;10.30;;;10.20;99.90;;;;;;5007968;28;20553;-74
2023/04/21 01:18:53;;;;;;;20.10;12.27;;;10.10;99.90;;;;;;5016165;28;20433;-73
2023/04/21 01:28:10;;;;;;;19.33;10.97;;;9.90;99.90;;;;;;4920509;29;20460;-76
2023/04/21 01:31:00;;;;;;;17.53;8.60;;;10.10;99.90;;;;;;4946089;28;21151;-73
2023/04/21 01:33:56;;;;;;;20.50;10.37;;;9.90;99.90;;;;;;4959916;28;20483;-75
2023/04/21 01:36:40;;;;;;;;;;;;;;;;;;;;;
2023/04/21 01:39:52;;;;;;;;;;;;;;;;;;;;;
2023/04/21 01:43:11;;;;;;;21.37;11.33;;;10.00;99.90;;;;;;5000366;28;20471;-74
2023/04/21 01:49:03;;;;;;;22.40;9.87;;;10.20;99.90;;;;;;4999243;28;20428;-75
2023/04/21 01:51:42;;;;;;;21.50;12.37;;;10.10;99.90;;;;;;5005572;28;20449;-75
2023/04/21 02:00:25;;;;;;;16.20;9.17;;;9.90;99.90;;;;;;4977868;28;20450;-76
2023/04/21 02:17:38;;;;;;;23.20;11.37;;;9.80;99.90;;;;;;4897227;29;20989;-76
2023/04/21 02:21:07;;;;;;;;;;;;;;;;;;;;;
2023/04/21 02:31:10;;;;;;;22.93;10.03;;;9.90;99.90;;;;;;4898903;29;20473;-73
2023/04/21 02:34:19;;;;;;;20.80;10.00;;;9.90;99.90;;;;;;4942609;28;20463;-74
2023/04/21 02:37:20;;;;;;;22.03;10.03;;;9.90;99.90;;;;;;4968607;28;20464;-75
2023/04/21 02:39:47;;;;;;;19.97;11.27;;;9.90;99.90;;;;;;5002236;28;20426;-76
2023/04/21 02:42:53;;;;;;;22.33;11.40;;;9.90;99.90;;;;;;5005367;28;20482;-74
2023/04/21 02:45:25;;;;;;;20.67;10.60;;;10.00;99.90;;;;;;4994560;28;20468;-75
2023/04/21 02:47:58;;;;;;;27.10;13.57;;;10.00;99.90;;;;;;5004241;28;20474;-75
2023/04/21 02:50:28;;;;;;;21.73;10.83;;;9.80;99.90;;;;;;4999027;28;20422;-76
2023/04/21 02:59:00;;;;;;;18.97;11.17;;;9.90;99.90;;;;;;4999877;28;20462;-75
2023/04/21 03:11:13;;;;;;;18.90;11.10;;;10.10;99.90;;;;;;4942956;28;20498;-76
2023/04/21 03:20:43;;;;;;;21.40;11.00;;;10.00;99.90;;;;;;5009279;28;20453;-75
2023/04/21 03:26:47;;;;;;;24.17;11.67;;;10.00;99.90;;;;;;5001052;28;20499;-75
2023/04/21 03:32:42;;;;;;;20.10;10.30;;;10.00;99.90;;;;;;4985942;28;20482;-74
2023/04/21 03:35:09;;;;;;;19.60;10.83;;;10.00;99.90;;;;;;4997268;28;20650;-75
2023/04/21 03:37:36;;;;;;;17.40;11.00;;;10.00;99.90;;;;;;4995128;28;20474;-74
2023/04/21 03:40:06;;;;;;;22.70;12.10;;;9.90;99.90;;;;;;5007695;28;20451;-75
2023/04/21 03:42:36;;;;;;;20.80;12.03;;;9.90;99.90;;;;;;5003075;28;20592;-74
2023/04/21 03:45:07;;;;;;;24.07;14.10;;;10.00;99.90;;;;;;4999152;28;20973;-76
2023/04/21 03:47:34;;;;;;;28.43;11.37;;;10.00;99.90;;;;;;5011101;28;20489;-75
2023/04/21 03:50:03;;;;;;;24.40;13.37;;;10.10;99.90;;;;;;5016114;28;20509;-76
2023/04/21 03:52:31;;;;;;;24.17;12.00;;;10.10;99.90;;;;;;5001710;28;21005;-75
2023/04/21 03:54:58;;;;;;;23.47;14.10;;;10.20;99.90;;;;;;5005066;28;20497;-75
2023/04/21 03:57:27;;;;;;;24.03;12.87;;;10.20;99.90;;;;;;5014987;28;20523;-76
2023/04/21 03:59:54;;;;;;;28.73;14.77;;;10.10;99.90;;;;;;5008897;28;20654;-75
2023/04/21 04:02:21;;;;;;;33.13;13.37;;;10.10;99.90;;;;;;5004417;28;20452;-75
2023/04/21 04:04:51;;;;;;;26.90;13.07;;;10.10;99.90;;;;;;5009127;28;20454;-75
2023/04/21 04:07:18;;;;;;;19.23;12.50;;;10.20;99.90;;;;;;5004698;28;20428;-75
2023/04/21 04:09:45;;;;;;;24.30;12.67;;;10.20;99.90;;;;;;4998881;28;20473;-74
2023/04/21 04:12:12;;;;;;;29.90;13.07;;;10.20;99.90;;;;;;4997165;28;20460;-73
2023/04/21 04:14:43;;;;;;;27.80;13.80;;;10.30;99.90;;;;;;5000471;28;20450;-75
2023/04/21 04:17:10;;;;;;;24.97;13.63;;;10.20;99.90;;;;;;5000806;28;20511;-76
2023/04/21 04:19:37;;;;;;;23.30;13.23;;;10.30;99.90;;;;;;5007368;28;20446;-76
2023/04/21 04:22:06;;;;;;;31.03;14.70;;;10.20;99.90;;;;;;4998181;28;20477;-76
2023/04/21 04:24:34;;;;;;;36.70;17.00;;;10.20;99.90;;;;;;5002031;28;20464;-76
2023/04/21 04:27:04;;;;;;;33.50;13.27;;;10.20;99.90;;;;;;5003548;28;20501;-74
2023/04/21 04:29:32;;;;;;;24.10;13.13;;;10.20;99.90;;;;;;5022090;28;20563;-76
2023/04/21 04:32:05;;;;;;;18.30;11.97;;;10.20;99.90;;;;;;5003971;28;20473;-73
2023/04/21 04:34:36;;;;;;;27.37;12.47;;;10.20;99.90;;;;;;5001378;28;20484;-76
2023/04/21 04:37:05;;;;;;;23.37;12.17;;;10.10;99.90;;;;;;5001899;28;20465;-76
2023/04/21 04:39:35;;;;;;;27.93;13.03;;;10.10;99.90;;;;;;5005489;28;20531;-76
2023/04/21 04:42:03;;;;;;;26.47;13.80;;;10.20;99.90;;;;;;5005374;28;20481;-76
2023/04/21 04:44:31;;;;;;;30.13;13.37;;;10.10;99.90;;;;;;5002251;28;20553;-76
2023/04/21 04:46:58;;;;;;;34.93;14.53;;;10.10;99.90;;;;;;5003166;28;20505;-76
2023/04/21 04:49:35;;;;;;;26.90;12.47;;;10.10;99.90;;;;;;5003247;28;20469;-75
2023/04/21 04:52:05;;;;;;;33.17;13.80;;;10.20;99.90;;;;;;5000768;28;20456;-76
2023/04/21 04:54:32;;;;;;;31.20;15.90;;;10.10;99.90;;;;;;5000927;28;20447;-76
2023/04/21 04:57:02;;;;;;;20.80;13.40;;;10.20;99.90;;;;;;5000320;28;20466;-76
2023/04/21 04:59:29;;;;;;;29.60;13.87;;;10.20;99.90;;;;;;4998957;28;20981;-76
2023/04/21 05:01:59;;;;;;;33.27;14.50;;;10.20;99.90;;;;;;5005023;28;21014;-75
2023/04/21 05:04:30;;;;;;;24.70;15.17;;;10.20;99.90;;;;;;5002905;28;20583;-75
2023/04/21 05:06:57;;;;;;;28.37;12.97;;;10.20;99.90;;;;;;5011383;28;20535;-76
2023/04/21 05:09:24;;;;;;;24.57;12.17;;;10.20;99.90;;;;;;5012469;28;20469;-76
2023/04/21 05:11:51;;;;;;;20.83;11.77;;;10.30;99.90;;;;;;5006968;28;20469;-75
2023/04/21 05:14:19;;;;;;;24.97;13.63;;;10.10;99.90;;;;;;5001423;28;20927;-75
2023/04/21 05:16:46;;;;;;;25.43;14.07;;;10.20;99.90;;;;;;5009519;28;20985;-75
2023/04/21 05:19:13;;;;;;;26.30;14.37;;;10.20;99.90;;;;;;5006524;28;20616;-75
2023/04/21 05:21:42;;;;;;;24.00;14.20;;;10.30;99.90;;;;;;5010983;28;20558;-74
2023/04/21 05:24:10;;;;;;;28.70;12.30;;;10.30;99.90;;;;;;5007942;28;20531;-74
2023/04/21 05:26:37;;;;;;;23.40;13.23;;;10.30;99.90;;;;;;5020457;28;20624;-76
2023/04/21 05:29:04;;;;;;;18.97;12.33;;;10.20;99.90;;;;;;5011538;28;20424;-77
2023/04/21 05:31:31;;;;;;;34.53;14.30;;;10.30;99.90;;;;;;5002660;28;20469;-75
2023/04/21 05:33:58;;;;;;;28.53;16.27;;;10.30;99.90;;;;;;5001819;28;20465;-76
2023/04/21 05:36:26;;;;;;;27.37;14.43;;;10.40;99.90;;;;;;5009284;28;20489;-76
2023/04/21 05:39:00;;;;;;;27.47;14.37;;;10.50;99.90;;;;;;5005803;28;20453;-74
2023/04/21 05:41:28;;;;;;;28.83;13.93;;;10.50;99.90;;;;;;5004045;28;20437;-76
2023/04/21 05:43:58;;;;;;;28.50;13.70;;;10.60;99.90;;;;;;5006824;28;20612;-76
2023/04/21 05:46:33;;;;;;;30.30;14.17;;;10.70;99.90;;;;;;5009349;28;20477;-76
2023/04/21 05:49:01;;;;;;;22.17;12.87;;;10.70;99.90;;;;;;5002472;28;20457;-76
2023/04/21 05:51:30;;;;;;;22.63;12.50;;;10.80;99.90;;;;;;5000460;28;20527;-76
2023/04/21 05:54:03;;;;;;;27.90;13.73;;;10.80;99.90;;;;;;5003389;28;20478;-76
2023/04/21 05:56:30;;;;;;;30.70;15.87;;;10.80;99.90;;;;;;5000997;28;20453;-75
2023/04/21 05:58:57;;;;;;;24.77;13.07;;;10.80;99.90;;;;;;5017404;28;20448;-75
2023/04/21 06:01:24;;;;;;;25.60;15.67;;;10.90;99.90;;;;;;5004667;28;20969;-76
2023/04/21 06:03:55;;;;;;;29.53;16.07;;;11.00;99.90;;;;;;4999585;28;21053;-76
2023/04/21 06:06:24;;;;;;;26.03;12.90;;;11.00;99.90;;;;;;4999786;28;20466;-76
2023/04/21 06:08:52;;;;;;;30.60;14.23;;;11.00;99.90;;;;;;4999905;28;20870;-74
2023/04/21 06:11:21;;;;;;;24.50;11.97;;;11.00;99.90;;;;;;5001146;28;20524;-77
2023/04/21 06:13:50;;;;;;;21.00;12.00;;;10.90;99.90;;;;;;4997681;28;20529;-76
2023/04/21 06:16:17;;;;;;;28.10;14.83;;;10.90;99.90;;;;;;4999588;28;20460;-76
2023/04/21 06:18:44;;;;;;;21.00;13.53;;;11.10;99.90;;;;;;4996421;28;20470;-76
2023/04/21 06:21:11;;;;;;;29.23;14.20;;;11.20;99.90;;;;;;5005589;28;20500;-77
2023/04/21 06:23:38;;;;;;;31.47;12.43;;;11.30;99.90;;;;;;5019291;28;20489;-74
2023/04/21 06:26:07;;;;;;;23.67;11.80;;;11.20;99.90;;;;;;5004142;28;20529;-76
2023/04/21 06:28:37;;;;;;;23.63;14.20;;;11.20;99.90;;;;;;5011479;28;20461;-76
2023/04/21 06:31:08;;;;;;;24.00;13.93;;;11.20;99.90;;;;;;5017819;28;20945;-76
2023/04/21 06:33:37;;;;;;;25.80;17.07;;;11.30;99.90;;;;;;5007486;28;20477;-76
2023/04/21 06:36:05;;;;;;;34.23;14.77;;;11.40;99.90;;;;;;4981093;28;20458;-76
2023/04/21 06:38:32;;;;;;;31.23;15.10;;;11.60;99.90;;;;;;4956533;28;20548;-76
2023/04/21 06:41:03;;;;;;;31.83;14.00;;;11.60;99.90;;;;;;4955987;28;20481;-76
2023/04/21 06:43:30;;;;;;;26.47;13.20;;;11.70;99.90;;;;;;4998514;28;20496;-76
2023/04/21 06:45:58;;;;;;;20.60;13.60;;;11.80;99.90;;;;;;5006387;28;20453;-73
2023/04/21 06:48:35;;;;;;;31.63;16.30;;;11.90;99.90;;;;;;5006224;28;20476;-77
2023/04/21 06:54:54;;;;;;;22.70;13.80;;;12.00;99.90;;;;;;4976646;28;20480;-76
2023/04/21 06:57:32;;;;;;;27.17;15.70;;;12.00;99.90;;;;;;5005219;28;20457;-76
2023/04/21 07:00:07;;;;;;;27.53;14.90;;;12.00;99.90;;;;;;4997874;28;20462;-77
2023/04/21 07:02:40;;;;;;;23.27;12.03;;;12.00;99.90;;;;;;4996341;28;20845;-76
2023/04/21 07:05:12;;;;;;;29.40;16.77;;;12.00;99.90;;;;;;4999150;28;20545;-76
2023/04/21 07:07:49;;;;;;;26.67;15.70;;;12.10;99.90;;;;;;4998397;28;20511;-76
2023/04/21 07:10:23;;;;;;;19.57;12.13;;;12.20;99.90;;;;;;4999501;28;20464;-76
2023/04/21 07:12:54;;;;;;;23.80;12.90;;;12.10;99.90;;;;;;4997538;28;20497;-75
2023/04/21 07:15:47;;;;;;;25.90;13.43;;;12.00;99.90;;;;;;4999779;28;20457;-76
2023/04/21 07:25:15;;;;;;;22.37;13.00;;;12.10;99.90;;;;;;4960861;28;20484;-76
2023/04/21 07:42:13;;;;;;;20.07;13.13;;;12.20;99.90;;;;;;4927547;28;20499;-74
2023/04/21 07:45:09;;;;;;;21.27;13.40;;;12.50;99.90;;;;;;4924949;29;20461;-74
2023/04/21 08:01:14;;;;;;;20.07;12.00;;;12.10;99.90;;;;;;4905412;29;20568;-76
2023/04/21 08:04:25;;;;;;;17.83;10.93;;;12.10;99.90;;;;;;4927638;29;20512;-77
2023/04/21 08:19:11;;;;;;;22.90;13.80;;;12.50;99.90;;;;;;5167838;23;20492;-73
2023/04/21 08:25:50;;;;;;;;;;;;;;;;;;;;;
2023/04/21 08:32:02;;;;;;;16.23;8.87;;;12.90;99.90;;;;;;4845018;29;20465;-76
2023/04/21 08:37:52;;;;;;;10.37;6.73;;;12.90;99.90;;;;;;4918813;29;20490;-75
2023/04/21 08:47:38;;;;;;;24.80;12.17;;;12.90;99.90;;;;;;4961464;28;20450;-77
2023/04/21 09:01:30;;;;;;;;;;;;;;;;;;;;;
2023/04/21 09:08:18;;;;;;;20.40;12.10;;;12.80;99.90;;;;;;4870329;29;20459;-77
2023/04/21 09:11:29;;;;;;;21.07;12.67;;;13.00;99.90;;;;;;4910555;29;20472;-77
2023/04/21 09:21:26;;;;;;;;;;;;;;;;;;;;;
2023/04/21 09:27:52;;;;;;;10.33;6.47;;;13.50;99.90;;;;;;4908043;29;20458;-74
2023/04/21 09:33:36;;;;;;;22.40;13.10;;;13.80;99.90;;;;;;4966773;28;20999;-77
2023/04/21 09:39:14;;;;;;;18.17;11.87;;;14.00;99.90;;;;;;4943176;28;20440;-77
2023/04/21 09:42:00;;;;;;;18.60;11.93;;;14.10;99.90;;;;;;4964180;28;20456;-76
2023/04/21 10:35:25;;;;;;;;;;;;;;;;;;;;;
2023/04/21 11:08:05;;;;;;;;;;;;;;;;;;;;;
2023/04/21 11:11:08;;;;;;;20.00;9.20;;;15.80;99.90;;;;;;4901255;29;20458;-76
2023/04/21 11:17:42;;;;;;;9.33;6.20;;;15.30;99.90;;;;;;4845744;29;20502;-77
2023/04/21 11:30:20;;;;;;;16.87;8.83;;;15.50;99.90;;;;;;4894660;29;20907;-75
2023/04/21 11:38:49;;;;;;;20.17;11.77;;;15.90;99.90;;;;;;4970229;28;20513;-78
2023/04/21 11:54:48;;;;;;;17.87;12.07;;;16.00;99.90;;;;;;4930054;28;20486;-78
2023/04/21 12:01:34;;;;;;;17.47;11.37;;;16.50;99.90;;;;;;4985162;28;20557;-76
2023/04/21 12:04:40;;;;;;;24.27;10.97;;;16.60;99.90;;;;;;4958707;28;20886;-78
2023/04/21 12:15:03;;;;;;;16.03;10.10;;;17.00;99.90;;;;;;4907972;29;20576;-77
2023/04/21 12:18:01;;;;;;;16.90;10.63;;;17.80;99.90;;;;;;4910626;29;20462;-76
2023/04/21 12:21:05;;;;;;;20.33;12.90;;;18.90;99.90;;;;;;4913424;29;20533;-77
2023/04/21 13:36:57;;;;;;;;;;;;;;;;;;;;;
2023/04/21 13:53:17;;;;;;;14.87;9.50;;;21.70;99.90;;;;;;4696396;30;20498;-76
2023/04/21 15:19:59;;;;;;;;;;;;;;;;;;;;;
2023/04/21 15:26:24;;;;;;;14.70;8.70;;;19.10;99.90;;;;;;4838132;29;20487;-74
2023/04/21 15:38:43;;;;;;;12.77;7.90;;;18.40;99.90;;;;;;4857421;29;20458;-77
2023/04/21 15:41:45;;;;;;;15.13;10.13;;;18.40;99.90;;;;;;4870287;29;20550;-76
2023/04/21 15:44:37;;;;;;;13.27;9.07;;;18.40;99.90;;;;;;4880258;29;20484;-77
2023/04/21 15:48:02;;;;;;;12.87;7.40;;;18.60;99.90;;;;;;4883084;29;20581;-77
2023/04/21 15:54:16;;;;;;;12.00;10.47;;;18.80;99.90;;;;;;4894722;29;20646;-77
2023/04/21 15:56:47;;;;;;;12.50;8.40;;;18.90;99.90;;;;;;4927528;29;20556;-77
2023/04/21 16:00:26;;;;;;;13.50;8.47;;;18.90;99.90;;;;;;4931211;29;20457;-74
2023/04/21 16:03:51;;;;;;;9.50;7.00;;;18.90;99.90;;;;;;4906062;29;20505;-76
2023/04/21 16:26:27;;;;;;;10.53;8.00;;;19.00;99.90;;;;;;4787599;29;20494;-75
2023/04/21 16:29:16;;;;;;;18.03;12.10;;;18.80;99.90;;;;;;4822114;29;20498;-76
2023/04/21 16:42:02;;;;;;;15.00;10.03;;;18.90;99.90;;;;;;4759129;30;20492;-76
2023/04/21 16:48:28;;;;;;;13.50;10.13;;;19.10;99.90;;;;;;4796568;29;20623;-76
2023/04/21 16:51:30;;;;;;;14.77;10.47;;;19.10;99.90;;;;;;4792236;29;20475;-76
2023/04/21 17:00:28;;;;;;;15.07;10.20;;;18.90;99.90;;;;;;4797553;29;20969;-75
2023/04/21 17:03:27;;;;;;;12.10;9.47;;;18.70;99.90;;;;;;4821772;29;20510;-74
2023/04/21 17:19:05;;;;;;;14.67;8.63;;;19.00;99.90;;;;;;4858342;29;20543;-76
2023/04/21 17:25:25;;;;;;;14.60;9.40;;;18.50;99.90;;;;;;4986144;28;20481;-76
2023/04/21 17:28:14;;;;;;;14.17;9.00;;;18.50;99.90;;;;;;4981899;28;20466;-75
2023/04/21 17:30:51;;;;;;;12.47;9.77;;;18.50;99.90;;;;;;4983313;28;20465;-76
2023/04/21 17:33:18;;;;;;;16.23;10.57;;;18.40;99.90;;;;;;4989298;28;20490;-76
2023/04/21 17:35:50;;;;;;;27.60;10.63;;;18.20;99.90;;;;;;4990121;28;20458;-77
2023/04/21 17:41:45;;;;;;;15.50;10.17;;;17.90;99.90;;;;;;4925850;29;20499;-76
2023/04/21 17:44:26;;;;;;;19.73;9.63;;;17.80;99.90;;;;;;4982358;28;20501;-76
2023/04/21 17:47:11;;;;;;;16.47;9.93;;;17.70;99.90;;;;;;5002322;28;20458;-76
2023/04/21 17:49:46;;;;;;;14.43;10.57;;;17.70;99.90;;;;;;4992028;28;20966;-75
2023/04/21 17:52:22;;;;;;;16.93;11.33;;;17.60;99.90;;;;;;4989540;28;20548;-77
2023/04/21 17:54:56;;;;;;;15.00;9.43;;;17.50;99.90;;;;;;4989678;28;20824;-75
2023/04/21 18:00:18;;;;;;;14.90;10.47;;;17.50;99.90;;;;;;4947131;28;20458;-75
2023/04/21 18:02:51;;;;;;;15.70;9.60;;;17.40;99.90;;;;;;4986019;28;20498;-76
2023/04/21 18:05:21;;;;;;;18.43;10.90;;;17.40;99.90;;;;;;4985567;28;20481;-76
2023/04/21 18:08:12;;;;;;;15.20;11.27;;;17.30;99.90;;;;;;4990495;28;20497;-77
2023/04/21 18:17:01;;;;;;;18.67;11.30;;;17.10;99.90;;;;;;4988598;28;20545;-76
2023/04/21 18:19:37;;;;;;;15.80;8.67;;;17.10;99.90;;;;;;4984929;28;20461;-75
2023/04/21 18:22:09;;;;;;;14.97;9.80;;;16.90;99.90;;;;;;4987801;28;20462;-76
2023/04/21 18:24:38;;;;;;;15.90;9.40;;;16.80;99.90;;;;;;4987784;28;20570;-76
2023/04/21 18:27:21;;;;;;;18.57;11.30;;;16.60;99.90;;;;;;4989447;28;20521;-76
2023/04/21 18:29:49;;;;;;;14.77;10.90;;;16.50;99.90;;;;;;4990374;28;21040;-76
2023/04/21 18:32:24;;;;;;;19.40;10.20;;;16.50;99.90;;;;;;4989610;28;20870;-76
2023/04/21 18:34:56;;;;;;;11.57;8.53;;;16.30;99.90;;;;;;4989100;28;20596;-76
2023/04/21 18:37:26;;;;;;;18.30;12.23;;;16.20;99.90;;;;;;4987490;28;20557;-76
2023/04/21 18:39:59;;;;;;;19.30;10.10;;;16.10;99.90;;;;;;4987259;28;20825;-77
2023/04/21 18:42:29;;;;;;;13.40;10.23;;;16.00;99.90;;;;;;4986071;28;20461;-77
2023/04/21 18:44:58;;;;;;;16.13;10.10;;;15.90;99.90;;;;;;4986542;28;20991;-76
2023/04/21 18:47:28;;;;;;;18.57;11.33;;;15.80;99.90;;;;;;4986916;28;20458;-76
2023/04/21 18:49:57;;;;;;;17.17;11.07;;;15.70;99.90;;;;;;4985861;28;20470;-76
2023/04/21 18:55:27;;;;;;;20.03;12.57;;;15.50;99.90;;;;;;4985715;28;20462;-77
2023/04/21 19:01:22;;;;;;;25.60;13.27;;;15.30;99.90;;;;;;4975794;28;20470;-77
2023/04/21 19:03:51;;;;;;;17.20;11.63;;;15.10;99.90;;;;;;4985129;28;20481;-77
2023/04/21 19:06:38;;;;;;;19.33;11.93;;;15.00;99.90;;;;;;4987568;28;20470;-77
2023/04/21 19:09:13;;;;;;;14.80;11.10;;;14.90;99.90;;;;;;4984706;28;20462;-77
2023/04/21 19:12:02;;;;;;;22.33;11.60;;;14.80;99.90;;;;;;4985283;28;21043;-75
2023/04/21 19:21:49;;;;;;;18.93;10.20;;;14.50;99.90;;;;;;4930892;29;20611;-76
2023/04/21 19:25:21;;;;;;;;;;;;;;;;;;;;;
2023/04/21 19:28:12;;;;;;;19.73;11.87;;;14.40;99.90;;;;;;4832757;29;20462;-76
2023/04/21 19:30:47;;;;;;;17.73;11.87;;;14.40;99.90;;;;;;4848799;29;20556;-76
2023/04/21 19:39:32;;;;;;;17.93;12.07;;;14.10;99.90;;;;;;4818928;29;20476;-77
2023/04/21 19:55:18;;;;;;;19.27;10.70;;;13.80;99.90;;;;;;4757868;29;20204;-75
2023/04/21 20:01:25;;;;;;;20.60;10.87;;;13.80;99.90;;;;;;4781630;29;20560;-77
2023/04/21 20:04:06;;;;;;;17.30;10.43;;;13.80;99.90;;;;;;4858816;29;20539;-76
2023/04/21 20:06:36;;;;;;;21.00;10.67;;;13.70;99.90;;;;;;4869594;29;20510;-76
2023/04/21 20:13:03;;;;;;;19.93;11.50;;;13.70;99.90;;;;;;4817065;29;21268;-76
2023/04/21 20:15:46;;;;;;;16.30;10.50;;;13.80;99.90;;;;;;4820188;29;20478;-77
2023/04/21 20:18:15;;;;;;;22.77;11.90;;;13.90;99.90;;;;;;4922389;29;20465;-76
2023/04/21 20:20:47;;;;;;;17.60;11.03;;;13.90;99.90;;;;;;4924013;29;20606;-76
2023/04/21 20:23:32;;;;;;;;;;;;;;;;;;;;;
2023/04/21 20:26:02;;;;;;;25.70;14.00;;;14.00;99.90;;;;;;4933579;29;20483;-77
2023/04/21 20:28:32;;;;;;;25.50;12.23;;;14.00;99.90;;;;;;4932706;29;20495;-77
2023/04/21 20:31:06;;;;;;;21.10;6.20;;;13.90;99.90;;;;;;4930780;29;21113;-79
2023/04/21 20:33:34;;;;;;;4.70;2.47;;;13.70;99.90;;;;;;4932121;29;20459;-75
2023/04/21 20:36:07;;;;;;;10.87;3.00;;;13.80;99.90;;;;;;4935035;29;20904;-76
2023/04/21 20:38:40;;;;;;;3.00;2.80;;;13.50;99.90;;;;;;4915729;29;20612;-74
2023/04/21 20:41:22;;;;;;;2.73;2.33;;;13.00;99.90;;;;;;4924837;29;20942;-77
2023/04/21 20:44:06;;;;;;;3.70;2.23;;;12.80;99.90;;;;;;4902170;29;20551;-75
2023/04/21 20:47:03;;;;;;;4.50;2.83;;;12.70;99.90;;;;;;4936531;29;20484;-76
2023/04/21 20:49:30;;;;;;;3.50;2.73;;;12.60;99.90;;;;;;4922623;28;20699;-77
2023/04/21 20:51:59;;;;;;;4.13;3.07;;;12.70;99.90;;;;;;4994353;28;20458;-76
2023/04/21 20:54:28;;;;;;;5.00;3.10;;;12.80;99.90;;;;;;4991323;28;20809;-77
2023/04/21 20:56:55;;;;;;;4.60;3.50;;;12.80;99.90;;;;;;4990534;28;20509;-76
2023/04/21 20:59:23;;;;;;;3.60;2.97;;;12.90;99.90;;;;;;5001061;28;20466;-76
2023/04/21 21:01:50;;;;;;;2.63;2.33;;;12.90;99.90;;;;;;5000141;28;20458;-76
2023/04/21 21:04:23;;;;;;;7.00;3.50;;;12.90;99.90;;;;;;4972318;28;20470;-75
2023/04/21 21:06:50;;;;;;;5.87;3.37;;;12.90;99.90;;;;;;4912645;28;20988;-78
2023/04/21 21:09:21;;;;;;;10.60;4.57;;;12.90;99.90;;;;;;4987473;28;20489;-76
2023/04/21 21:11:51;;;;;;;10.83;4.23;;;12.80;99.90;;;;;;4982533;28;20876;-75
2023/04/21 21:14:25;;;;;;;6.10;3.83;;;12.70;99.90;;;;;;4987214;28;20478;-78
2023/04/21 21:17:04;;;;;;;10.40;4.40;;;12.70;99.90;;;;;;4985066;28;20819;-76
2023/04/21 21:20:03;;;;;;;4.57;3.03;;;12.70;99.90;;;;;;4980843;28;20438;-76
2023/04/21 21:23:04;;;;;;;4.23;2.90;;;12.70;99.90;;;;;;4954736;28;20522;-76
2023/04/21 21:26:24;;;;;;;6.80;4.23;;;12.80;99.90;;;;;;4986105;28;20513;-75
2023/04/21 21:29:12;;;;;;;5.70;3.40;;;12.70;99.90;;;;;;4994629;28;20466;-77
2023/04/21 21:32:02;;;;;;;6.10;3.50;;;12.50;99.90;;;;;;4984269;28;20453;-74
2023/04/21 21:34:54;;;;;;;4.00;3.37;;;12.40;99.90;;;;;;4971177;28;20501;-76
2023/04/21 21:37:33;;;;;;;9.63;4.93;;;12.40;99.90;;;;;;4956263;28;20540;-76
2023/04/21 21:40:04;;;;;;;4.57;2.93;;;12.40;99.90;;;;;;4989227;28;20454;-75
2023/04/21 21:42:36;;;;;;;3.13;2.70;;;12.30;99.90;;;;;;4960707;28;21114;-74
2023/04/21 21:45:03;;;;;;;3.73;2.90;;;12.00;99.90;;;;;;4990423;28;20506;-75
2023/04/21 21:47:33;;;;;;;5.47;3.17;;;11.90;99.90;;;;;;4988093;28;20557;-75
2023/04/21 21:50:00;;;;;;;5.83;4.17;;;11.80;99.90;;;;;;4990851;28;20466;-76
2023/04/21 21:52:29;;;;;;;4.27;3.40;;;11.80;99.90;;;;;;4988307;28;20467;-75
2023/04/21 21:54:59;;;;;;;6.37;3.20;;;11.80;99.90;;;;;;4969925;28;20458;-75
2023/04/21 21:57:26;;;;;;;6.07;3.43;;;11.80;99.90;;;;;;4988065;28;20459;-76
2023/04/21 21:59:59;;;;;;;5.20;3.43;;;11.90;99.90;;;;;;4991664;28;20458;-76
2023/04/21 22:02:28;;;;;;;5.20;3.50;;;12.00;99.90;;;;;;4988777;28;20457;-76
2023/04/21 22:05:03;;;;;;;5.50;3.97;;;11.90;99.90;;;;;;4971825;28;20938;-76
2023/04/21 22:07:31;;;;;;;4.10;3.40;;;12.00;99.90;;;;;;4988156;28;20476;-75
2023/04/21 22:10:00;;;;;;;8.00;3.70;;;12.10;99.90;;;;;;4989782;28;20985;-73
2023/04/21 22:12:27;;;;;;;5.50;3.50;;;12.20;99.90;;;;;;4990714;28;20487;-76
2023/04/21 22:15:00;;;;;;;5.47;3.77;;;12.20;99.90;;;;;;4989453;28;20548;-73
2023/04/21 22:17:28;;;;;;;8.43;3.53;;;12.20;99.90;;;;;;4986864;28;20462;-76
2023/04/21 22:20:08;;;;;;;5.27;3.50;;;12.30;99.90;;;;;;4983498;28;20451;-76
2023/04/21 22:22:37;;;;;;;8.07;4.97;;;12.30;99.90;;;;;;4990359;28;20536;-76
2023/04/21 22:25:13;;;;;;;6.63;4.60;;;12.20;99.90;;;;;;4986868;28;20520;-76
2023/04/21 22:30:52;;;;;;;4.57;3.93;;;12.20;99.90;;;;;;4951395;28;20462;-76
2023/04/21 22:33:22;;;;;;;5.23;4.00;;;12.20;99.90;;;;;;4992374;28;20513;-76
2023/04/21 22:35:51;;;;;;;8.03;4.93;;;12.10;99.90;;;;;;4996231;28;20454;-74
2023/04/21 22:38:25;;;;;;;8.63;5.50;;;12.10;99.90;;;;;;4998477;28;20486;-76
2023/04/21 22:40:55;;;;;;;7.10;4.33;;;12.00;99.90;;;;;;5002383;28;20458;-76
2023/04/21 22:43:24;;;;;;;4.43;3.43;;;11.90;99.90;;;;;;4973496;28;21001;-76
2023/04/21 22:45:51;;;;;;;5.37;4.07;;;11.80;99.90;;;;;;4983346;28;20528;-76
2023/04/21 22:48:18;;;;;;;6.87;5.10;;;11.80;99.90;;;;;;4987417;28;20528;-75
2023/04/21 22:50:46;;;;;;;6.50;4.93;;;11.70;99.90;;;;;;4975135;28;20454;-75
2023/04/21 22:53:13;;;;;;;8.40;6.40;;;11.50;99.90;;;;;;4991439;28;20482;-77
2023/04/21 22:55:42;;;;;;;8.23;6.03;;;11.40;99.90;;;;;;4985495;28;21163;-76
2023/04/21 22:58:09;;;;;;;9.67;5.90;;;11.40;99.90;;;;;;5002059;28;20449;-75
2023/04/21 23:00:36;;;;;;;5.40;4.20;;;11.40;99.90;;;;;;4990765;28;20521;-76
2023/04/21 23:03:05;;;;;;;5.73;4.50;;;11.30;99.90;;;;;;4984441;28;20520;-77
2023/04/21 23:05:32;;;;;;;7.00;6.30;;;11.30;99.90;;;;;;4988446;28;20477;-75
2023/04/21 23:08:03;;;;;;;5.90;4.93;;;11.30;99.90;;;;;;4988486;28;20490;-76
2023/04/21 23:10:34;;;;;;;4.93;4.47;;;11.40;99.90;;;;;;4984691;28;20808;-76
2023/04/21 23:13:13;;;;;;;9.23;4.63;;;11.20;99.90;;;;;;4986900;28;20477;-77
2023/04/21 23:18:23;;;;;;;7.63;6.33;;;10.80;99.90;;;;;;4982916;28;20469;-77
2023/04/21 23:20:50;;;;;;;8.87;7.37;;;10.60;99.90;;;;;;4990525;28;21203;-76
2023/04/21 23:23:19;;;;;;;9.03;5.07;;;10.60;99.90;;;;;;4989095;28;20565;-76
2023/04/21 23:25:58;;;;;;;6.90;5.57;;;10.60;99.90;;;;;;4987752;28;20458;-77
2023/04/21 23:28:28;;;;;;;9.17;6.57;;;10.70;99.90;;;;;;4985048;28;21257;-77
2023/04/21 23:30:56;;;;;;;9.23;7.00;;;10.70;99.90;;;;;;4972063;28;20516;-76
2023/04/21 23:33:23;;;;;;;9.43;5.50;;;10.70;99.90;;;;;;4986514;28;20522;-75
2023/04/21 23:35:56;;;;;;;11.93;7.30;;;10.80;99.90;;;;;;4948964;28;20470;-74
2023/04/21 23:38:23;;;;;;;8.33;5.93;;;10.80;99.90;;;;;;4991231;28;20478;-77
2023/04/21 23:40:50;;;;;;;5.33;4.67;;;10.80;99.90;;;;;;4969340;28;20966;-75
2023/04/21 23:43:19;;;;;;;11.83;5.93;;;10.50;99.90;;;;;;4986811;28;21169;-76
2023/04/21 23:46:01;;;;;;;9.00;5.20;;;10.30;99.90;;;;;;4987268;28;20481;-75
2023/04/21 23:48:33;;;;;;;11.73;5.27;;;10.20;99.90;;;;;;4987226;28;20500;-75